Wednesday, February 21, 2018, 8:16 PM EST
Back to Local

KMDT, Harrisburg International Airport

Location: Middletown, PA, United States Lat: 40.2
Local Time: 8:16 PM EST ( 1:16 GMT) Lon: -76.767
Time Zone: US/Eastern Elev: 308 ft

Show me the last for .
Show Decoded

2018-02-21 19:56 METAR KMDT 220056Z 36008KT 10SM SCT048 OVC085 21/12 A3032 RMK AO2 SLP269
                 T02060122 =
2018-02-21 18:56 METAR KMDT 212356Z 31010KT 10SM BKN049 BKN090 18/12 A3030 RMK AO2 SLP261
                 T01780117 10261 20172 53033 =
2018-02-21 17:56 METAR KMDT 212256Z 25010KT 10SM BKN060 BKN090 21/16 A3025 RMK AO2 SLP246
                 T02110161 =
2018-02-21 16:56 METAR KMDT 212156Z 24004KT 10SM FEW047 BKN070 BKN110 24/14 A3021 RMK AO2 SLP230
                 T02390139 =
2018-02-21 15:56 METAR KMDT 212056Z VRB04G15KT 10SM SCT075 26/14 A3020 RMK AO2 SLP226 T02610144
                 55007 =
2018-02-21 14:56 METAR KMDT 211956Z 20012G20KT 10SM SCT075 24/13 A3020 RMK AO2 SLP225 T02440133 =
2018-02-21 13:56 METAR KMDT 211856Z 23010G16KT 10SM FEW050 25/14 A3020 RMK AO2 SLP226 T02500139 =
2018-02-21 12:56 METAR KMDT 211756Z 18011G20KT 150V220 10SM FEW080 SCT200 24/14 A3022 RMK AO2
                 SLP233 T02390139 10239 20061 58021 =
2018-02-21 11:56 METAR KMDT 211656Z 06004KT 10SM SCT080 SCT200 23/13 A3025 RMK AO2 SLP244
                 T02280133 =
2018-02-21 10:56 METAR KMDT 211556Z 06004KT 10SM SCT200 21/13 A3026 RMK AO2 SLP249 T02060133 =
2018-02-21 09:56 METAR KMDT 211456Z VRB03KT 10SM SCT070 BKN200 14/11 A3028 RMK AO2 SLP254
                 T01440111 58003 =
2018-02-21 08:56 METAR KMDT 211356Z 00000KT 3SM BR SCT002 BKN200 09/08 A3029 RMK AO2 SLP259 VSBY
                 LWR W T00940083 =
2018-02-21 08:15 METAR KMDT 211315Z 12005KT 3SM R13/1800V3500FT BR SCT002 BKN200 07/07 A3030 RMK
                 AO2 VSBY LWR W T00720067 =
2018-02-21 08:07 METAR KMDT 211307Z 13004KT 1/4SM R13/1200V4500FT FG VV002 07/07 A3030 RMK AO2
                 T00720067 =
2018-02-21 07:56 METAR KMDT 211256Z 00000KT M1/4SM R13/0800V1200FT FG VV001 07/07 A3030 RMK AO2
                 SLP262 T00720067 =
2018-02-21 07:34 METAR KMDT 211234Z 12004KT M1/4SM R13/0800V1600FT FG VV002 07/06 A3029 RMK AO2
                 T00670061 =
2018-02-21 06:56 METAR KMDT 211156Z 00000KT 1/2SM R13/2000VP6000FT FG VV002 08/07 A3029 RMK AO2
                 SLP258 T00780072 10144 20067 53006 =
2018-02-21 06:13 METAR KMDT 211113Z 11006KT 1/2SM R13/3000VP6000FT FG BKN001 07/07 A3028 RMK AO2
                 TWR VIS 1 T00720067 =
2018-02-21 06:03 METAR KMDT 211103Z 09005KT 3SM R13/1800VP6000FT BR SCT001 07/07 A3028 RMK AO2
                 TWR VIS 4 T00720067 =
2018-02-21 05:56 METAR KMDT 211056Z 00000KT 3SM R13/1800VP6000FT BR CLR 07/06 A3028 RMK AO2 TWR
                 VIS 4 SLP255 VSBY W 1 T00670061 =
2018-02-21 05:42 METAR KMDT 211042Z 11004KT 3SM R13/6000VP6000FT BR CLR 07/07 A3028 RMK AO2 TWR
                 VIS 4 T00720072 =
2018-02-21 05:25 METAR KMDT 211025Z 12004KT 1/2SM R13/1600V6000FT FG CLR 07/06 A3028 RMK AO2 TWR
                 VIS 4 T00670056 =
2018-02-21 04:56 METAR KMDT 210956Z 10005KT 8SM CLR 07/07 A3028 RMK AO2 SLP253 T00720067 =
2018-02-21 03:56 METAR KMDT 210856Z VRB03KT 9SM CLR 08/07 A3027 RMK AO2 SLP252 T00830072 55003 =
2018-02-21 02:56 METAR KMDT 210756Z 00000KT 10SM CLR 08/08 A3027 RMK AO2 SLP250 T00830078 =
2018-02-21 01:56 METAR KMDT 210656Z VRB03KT 10SM FEW250 11/09 A3028 RMK AO2 SLP254 T01060089 =
2018-02-21 00:56 METAR KMDT 210556Z VRB03KT 10SM FEW250 13/10 A3028 RMK AO2 SLP254 T01280100
                 10167 20094 50001 =
2018-02-20 23:56 METAR KMDT 210456Z 00000KT 10SM CLR 11/09 A3028 RMK AO2 SLP256 T01110089
                 402500050 =
2018-02-20 22:56 METAR KMDT 210356Z 17006KT 10SM FEW250 12/09 A3028 RMK AO2 SLP254 T01170089 =
2018-02-20 21:56 METAR KMDT 210256Z 15006KT 10SM SCT250 16/11 A3028 RMK AO2 SLP254 T01610106
                 53003 =
2018-02-20 20:56 METAR KMDT 210156Z 14007KT 10SM SCT250 12/10 A3027 RMK AO2 SLP252 T01170100 =

Support USWX by starting your Amazon purchase here.